Hlavní strana
METAR-TAF:

METAR-TAF

Letiště :

Letiště Fua'amotu

Tongatapu, Tonga

zeměpisná šířka: 21-14S, zeměpisná délka: 175-09W, výška: 38 m

Aktuální stav počasí

Zpráva byla vytvořena před 40 minutami, v 09:00 UTC
vítr z různých směrů 2 kt
Teplota 20°C
Vlhkost vzduchu 94%
Tlak 1015 hPa
Viditelnost 10 km a více
Skoro jasno ve výšce 1600 ft
Oblačno až skoro zataženo ve výšce 4000 ft

METAR: NFTF 190900Z VRB02KT 9999 FEW016 BKN040 20/19 Q1015

Čas: 22:40 (09:40 UTC)

Předpověď počasí

Zpráva byla vytvořena před 4 hodinami a 24 minutami, v 05:16 UTC
Předpověď platná od 19 v 06 UTC do 20 v 06 UTC
vítr z různých směrů 3 kt
Viditelnost 10 km a více
Skoro jasno ve výšce 1600 ft
Oblačno až skoro zataženo ve výšce 10000 ft

TAF: NFTF 190516Z 1906/2006 VRB03KT 9999 FEW016 BKN100

Stav a předpovědi počasí z více než 4 000 letišť (zprávy METAR a TAF).

Červené a žluté tečky na mapě představují dostupné meteorologické stanice.

Když kurzor umístíte na tečku, zobrazí se název stanice.

Pak kliknutím zobrazíte stav a předpověď počasí.

Chcete-li změnit mapu, kliknutím na zelené tlačítko se znaménkem +mapu přiblížíte, kliknutím na zelené tlačítko se znaménkem – mapu oddálíte a kliknutím na zelené šipky přejdete na sousední mapy.


METAR-TAF: